sensor_id;sensor_type;location;lat;lon;timestamp;pressure;altitude;pressure_sealevel;temperature;humidity
32197;BME280;18697;42.770;23.400;2023-05-03T00:00:27;95967.66;;;12.93;45.54
32197;BME280;18697;42.770;23.400;2023-05-03T00:02:52;95968.59;;;12.90;45.77
32197;BME280;18697;42.770;23.400;2023-05-03T00:05:19;95979.81;;;12.71;45.70
32197;BME280;18697;42.770;23.400;2023-05-03T00:07:45;95969.91;;;12.70;46.16
32197;BME280;18697;42.770;23.400;2023-05-03T00:10:11;95969.19;;;12.61;46.55
32197;BME280;18697;42.770;23.400;2023-05-03T00:12:41;95965.44;;;12.64;46.25
32197;BME280;18697;42.770;23.400;2023-05-03T00:15:08;95961.75;;;12.58;46.22
32197;BME280;18697;42.770;23.400;2023-05-03T00:17:34;95972.84;;;12.67;46.28
32197;BME280;18697;42.770;23.400;2023-05-03T00:19:59;95970.22;;;12.63;46.53
32197;BME280;18697;42.770;23.400;2023-05-03T00:22:25;95966.66;;;12.63;46.55
32197;BME280;18697;42.770;23.400;2023-05-03T00:24:51;95968.75;;;12.53;46.73
32197;BME280;18697;42.770;23.400;2023-05-03T00:27:17;95961.19;;;12.44;47.23
32197;BME280;18697;42.770;23.400;2023-05-03T00:29:42;95954.22;;;12.40;47.49
32197;BME280;18697;42.770;23.400;2023-05-03T00:32:08;95955.94;;;12.37;47.74
32197;BME280;18697;42.770;23.400;2023-05-03T00:34:35;95965.22;;;12.34;47.88
32197;BME280;18697;42.770;23.400;2023-05-03T00:37:01;95966.47;;;12.24;48.51
32197;BME280;18697;42.770;23.400;2023-05-03T00:39:31;95962.31;;;12.20;48.89
32197;BME280;18697;42.770;23.400;2023-05-03T00:42:00;95966.94;;;12.13;49.39
32197;BME280;18697;42.770;23.400;2023-05-03T00:44:26;95961.06;;;12.11;49.36
32197;BME280;18697;42.770;23.400;2023-05-03T00:46:53;95961.22;;;12.17;49.30
32197;BME280;18697;42.770;23.400;2023-05-03T00:49:19;95955.66;;;12.17;49.57
32197;BME280;18697;42.770;23.400;2023-05-03T00:51:44;95966.31;;;12.18;49.83
32197;BME280;18697;42.770;23.400;2023-05-03T00:54:10;95963.88;;;12.11;50.23
32197;BME280;18697;42.770;23.400;2023-05-03T00:56:36;95959.06;;;12.03;49.85
32197;BME280;18697;42.770;23.400;2023-05-03T00:59:03;95970.34;;;12.27;49.57
32197;BME280;18697;42.770;23.400;2023-05-03T01:01:30;95959.06;;;12.12;49.22
32197;BME280;18697;42.770;23.400;2023-05-03T01:03:59;95953.03;;;12.04;49.40
32197;BME280;18697;42.770;23.400;2023-05-03T01:11:58;95963.56;;;12.00;50.53
32197;BME280;18697;42.770;23.400;2023-05-03T01:17:11;95945.63;;;11.92;50.79
32197;BME280;18697;42.770;23.400;2023-05-03T01:19:44;95942.69;;;11.96;51.03
32197;BME280;18697;42.770;23.400;2023-05-03T01:22:31;95944.69;;;11.95;51.28
32197;BME280;18697;42.770;23.400;2023-05-03T01:25:12;95935.56;;;11.95;51.81
32197;BME280;18697;42.770;23.400;2023-05-03T01:27:39;95934.78;;;12.03;51.69
32197;BME280;18697;42.770;23.400;2023-05-03T01:30:07;95936.03;;;12.11;51.62
32197;BME280;18697;42.770;23.400;2023-05-03T01:32:53;95934.72;;;12.40;50.40
32197;BME280;18697;42.770;23.400;2023-05-03T01:35:38;95934.44;;;12.29;50.87
32197;BME280;18697;42.770;23.400;2023-05-03T01:38:06;95930.75;;;12.23;51.12
32197;BME280;18697;42.770;23.400;2023-05-03T01:40:37;95940.50;;;12.18;51.07
32197;BME280;18697;42.770;23.400;2023-05-03T01:43:05;95935.84;;;12.15;51.37
32197;BME280;18697;42.770;23.400;2023-05-03T01:45:31;95932.94;;;12.09;51.40
32197;BME280;18697;42.770;23.400;2023-05-03T01:47:57;95940.66;;;12.14;52.12
32197;BME280;18697;42.770;23.400;2023-05-03T01:50:22;95945.91;;;12.22;51.92
32197;BME280;18697;42.770;23.400;2023-05-03T01:52:48;95930.13;;;12.18;52.27
32197;BME280;18697;42.770;23.400;2023-05-03T01:55:16;95927.66;;;12.11;52.40
32197;BME280;18697;42.770;23.400;2023-05-03T01:57:42;95932.31;;;12.05;51.78
32197;BME280;18697;42.770;23.400;2023-05-03T02:00:07;95929.06;;;12.07;51.45
32197;BME280;18697;42.770;23.400;2023-05-03T02:02:34;95920.88;;;12.03;50.31
32197;BME280;18697;42.770;23.400;2023-05-03T02:04:59;95910.22;;;11.93;49.93
32197;BME280;18697;42.770;23.400;2023-05-03T02:07:25;95924.13;;;11.93;50.16
32197;BME280;18697;42.770;23.400;2023-05-03T02:09:50;95924.91;;;11.93;50.66
32197;BME280;18697;42.770;23.400;2023-05-03T02:12:16;95915.00;;;11.92;50.93
32197;BME280;18697;42.770;23.400;2023-05-03T02:14:41;95922.47;;;11.86;50.97
32197;BME280;18697;42.770;23.400;2023-05-03T02:17:06;95911.28;;;12.04;50.78
32197;BME280;18697;42.770;23.400;2023-05-03T02:19:32;95909.13;;;12.08;50.48
32197;BME280;18697;42.770;23.400;2023-05-03T02:21:57;95911.59;;;12.06;50.91
32197;BME280;18697;42.770;23.400;2023-05-03T02:24:22;95902.63;;;11.93;50.97
32197;BME280;18697;42.770;23.400;2023-05-03T02:26:48;95906.94;;;12.12;51.21
32197;BME280;18697;42.770;23.400;2023-05-03T02:29:13;95923.63;;;12.22;50.41
32197;BME280;18697;42.770;23.400;2023-05-03T02:31:38;95922.38;;;12.32;50.01
32197;BME280;18697;42.770;23.400;2023-05-03T02:34:04;95919.28;;;12.21;50.23
32197;BME280;18697;42.770;23.400;2023-05-03T02:36:29;95918.06;;;12.12;50.46
32197;BME280;18697;42.770;23.400;2023-05-03T02:38:55;95916.78;;;12.32;50.34
32197;BME280;18697;42.770;23.400;2023-05-03T02:41:20;95917.09;;;12.34;49.92
32197;BME280;18697;42.770;23.400;2023-05-03T02:43:46;95920.38;;;12.23;49.87
32197;BME280;18697;42.770;23.400;2023-05-03T02:46:11;95920.44;;;12.56;49.43
32197;BME280;18697;42.770;23.400;2023-05-03T02:48:36;95903.22;;;12.91;49.86
32197;BME280;18697;42.770;23.400;2023-05-03T02:51:02;95915.22;;;13.06;50.16
32197;BME280;18697;42.770;23.400;2023-05-03T02:53:27;95932.38;;;13.61;48.83
32197;BME280;18697;42.770;23.400;2023-05-03T02:55:53;95932.34;;;13.85;49.45
32197;BME280;18697;42.770;23.400;2023-05-03T02:58:19;95921.41;;;13.96;47.99
32197;BME280;18697;42.770;23.400;2023-05-03T03:00:44;95937.25;;;14.43;47.69
32197;BME280;18697;42.770;23.400;2023-05-03T03:03:09;95923.84;;;14.62;47.46
32197;BME280;18697;42.770;23.400;2023-05-03T03:05:35;95928.44;;;14.80;46.91
32197;BME280;18697;42.770;23.400;2023-05-03T03:08:00;95920.09;;;14.86;46.79
32197;BME280;18697;42.770;23.400;2023-05-03T03:10:25;95926.94;;;14.99;46.25
32197;BME280;18697;42.770;23.400;2023-05-03T03:12:51;95934.59;;;15.19;45.51
32197;BME280;18697;42.770;23.400;2023-05-03T03:15:16;95933.97;;;15.30;44.98
32197;BME280;18697;42.770;23.400;2023-05-03T03:17:41;95944.31;;;14.89;44.70
32197;BME280;18697;42.770;23.400;2023-05-03T03:20:08;95935.88;;;14.68;44.90
32197;BME280;18697;42.770;23.400;2023-05-03T03:22:37;95934.34;;;14.67;46.64
32197;BME280;18697;42.770;23.400;2023-05-03T03:25:03;95927.47;;;14.83;46.79
32197;BME280;18697;42.770;23.400;2023-05-03T03:27:29;95938.81;;;14.94;46.48
32197;BME280;18697;42.770;23.400;2023-05-03T03:29:54;95935.59;;;15.01;46.59
32197;BME280;18697;42.770;23.400;2023-05-03T03:32:20;95943.22;;;15.01;44.83
32197;BME280;18697;42.770;23.400;2023-05-03T03:34:46;95934.94;;;14.92;46.12
32197;BME280;18697;42.770;23.400;2023-05-03T03:37:11;95944.94;;;14.78;45.42
32197;BME280;18697;42.770;23.400;2023-05-03T03:39:36;95941.38;;;14.77;47.01
32197;BME280;18697;42.770;23.400;2023-05-03T03:42:04;95946.19;;;14.62;45.64
32197;BME280;18697;42.770;23.400;2023-05-03T03:44:30;95943.75;;;14.26;45.91
32197;BME280;18697;42.770;23.400;2023-05-03T03:46:55;95948.00;;;14.06;46.11
32197;BME280;18697;42.770;23.400;2023-05-03T03:49:20;95964.03;;;13.82;47.24
32197;BME280;18697;42.770;23.400;2023-05-03T03:51:46;95961.78;;;13.71;47.75
32197;BME280;18697;42.770;23.400;2023-05-03T03:54:11;95968.97;;;13.63;47.62
32197;BME280;18697;42.770;23.400;2023-05-03T03:56:36;95973.25;;;13.49;47.89
32197;BME280;18697;42.770;23.400;2023-05-03T03:59:02;95981.50;;;13.11;48.33
32197;BME280;18697;42.770;23.400;2023-05-03T04:01:27;95977.78;;;12.72;49.49
32197;BME280;18697;42.770;23.400;2023-05-03T04:03:52;95981.25;;;12.58;50.14
32197;BME280;18697;42.770;23.400;2023-05-03T04:06:17;95987.22;;;12.23;51.14
32197;BME280;18697;42.770;23.400;2023-05-03T04:08:43;95991.72;;;12.02;51.99
32197;BME280;18697;42.770;23.400;2023-05-03T04:11:08;95987.06;;;11.90;52.91
32197;BME280;18697;42.770;23.400;2023-05-03T04:13:35;95992.19;;;11.82;53.77
32197;BME280;18697;42.770;23.400;2023-05-03T04:16:00;95989.69;;;11.66;54.40
32197;BME280;18697;42.770;23.400;2023-05-03T04:18:25;95995.88;;;11.70;54.08
32197;BME280;18697;42.770;23.400;2023-05-03T04:20:51;96007.78;;;11.71;54.48
32197;BME280;18697;42.770;23.400;2023-05-03T04:23:16;96018.44;;;11.72;54.54
32197;BME280;18697;42.770;23.400;2023-05-03T04:25:42;96016.09;;;11.52;54.66
32197;BME280;18697;42.770;23.400;2023-05-03T04:28:11;96025.34;;;11.49;55.24
32197;BME280;18697;42.770;23.400;2023-05-03T04:30:38;96020.69;;;11.37;55.69
32197;BME280;18697;42.770;23.400;2023-05-03T04:33:03;96017.31;;;11.42;56.13
32197;BME280;18697;42.770;23.400;2023-05-03T04:35:28;96017.44;;;11.39;55.82
32197;BME280;18697;42.770;23.400;2023-05-03T04:37:53;96020.22;;;11.39;55.80
32197;BME280;18697;42.770;23.400;2023-05-03T04:40:19;96022.38;;;11.35;57.03
32197;BME280;18697;42.770;23.400;2023-05-03T04:42:44;96028.88;;;11.32;58.30
32197;BME280;18697;42.770;23.400;2023-05-03T04:45:10;96034.84;;;11.21;58.30
32197;BME280;18697;42.770;23.400;2023-05-03T04:47:35;96040.19;;;10.97;59.63
32197;BME280;18697;42.770;23.400;2023-05-03T04:50:01;96047.19;;;10.80;60.28
32197;BME280;18697;42.770;23.400;2023-05-03T04:52:27;96063.25;;;10.76;60.10
32197;BME280;18697;42.770;23.400;2023-05-03T04:54:53;96042.06;;;10.69;61.83
32197;BME280;18697;42.770;23.400;2023-05-03T04:57:19;96044.84;;;10.69;61.56
32197;BME280;18697;42.770;23.400;2023-05-03T04:59:44;96054.75;;;10.79;62.66
32197;BME280;18697;42.770;23.400;2023-05-03T05:02:10;96065.75;;;10.83;61.74
32197;BME280;18697;42.770;23.400;2023-05-03T05:04:35;96064.97;;;10.82;62.87
32197;BME280;18697;42.770;23.400;2023-05-03T05:07:00;96084.16;;;10.90;62.58
32197;BME280;18697;42.770;23.400;2023-05-03T05:09:26;96073.56;;;10.75;64.18
32197;BME280;18697;42.770;23.400;2023-05-03T05:11:52;96074.09;;;10.61;64.23
32197;BME280;18697;42.770;23.400;2023-05-03T05:14:18;96075.06;;;10.45;64.85
32197;BME280;18697;42.770;23.400;2023-05-03T05:16:43;96073.91;;;10.56;65.73
32197;BME280;18697;42.770;23.400;2023-05-03T05:19:09;96074.63;;;10.69;66.67
32197;BME280;18697;42.770;23.400;2023-05-03T05:21:34;96082.69;;;10.76;67.17
32197;BME280;18697;42.770;23.400;2023-05-03T05:24:00;96075.13;;;10.76;67.14
32197;BME280;18697;42.770;23.400;2023-05-03T05:26:26;96077.44;;;10.78;67.98
32197;BME280;18697;42.770;23.400;2023-05-03T05:28:52;96072.59;;;10.91;68.52
32197;BME280;18697;42.770;23.400;2023-05-03T05:31:17;96074.03;;;11.05;68.62
32197;BME280;18697;42.770;23.400;2023-05-03T05:33:43;96078.97;;;11.01;67.70
32197;BME280;18697;42.770;23.400;2023-05-03T05:36:08;96074.59;;;10.91;67.74
32197;BME280;18697;42.770;23.400;2023-05-03T05:38:34;96074.63;;;10.69;68.49
32197;BME280;18697;42.770;23.400;2023-05-03T05:40:59;96071.38;;;10.70;68.88
32197;BME280;18697;42.770;23.400;2023-05-03T05:43:24;96078.72;;;10.86;69.83
32197;BME280;18697;42.770;23.400;2023-05-03T05:45:50;96075.53;;;10.97;70.33
32197;BME280;18697;42.770;23.400;2023-05-03T05:48:15;96075.09;;;10.98;70.01
32197;BME280;18697;42.770;23.400;2023-05-03T05:50:41;96073.13;;;11.08;70.58
32197;BME280;18697;42.770;23.400;2023-05-03T05:53:06;96078.25;;;11.18;69.59
32197;BME280;18697;42.770;23.400;2023-05-03T05:55:33;96076.00;;;11.35;69.46
32197;BME280;18697;42.770;23.400;2023-05-03T05:57:59;96073.53;;;11.37;70.60
32197;BME280;18697;42.770;23.400;2023-05-03T06:00:24;96058.28;;;11.51;68.92
32197;BME280;18697;42.770;23.400;2023-05-03T06:02:50;96068.66;;;11.60;69.30
32197;BME280;18697;42.770;23.400;2023-05-03T06:05:15;96060.88;;;11.45;68.60
32197;BME280;18697;42.770;23.400;2023-05-03T06:07:41;96065.06;;;11.50;68.95
32197;BME280;18697;42.770;23.400;2023-05-03T06:10:06;96059.03;;;11.51;69.28
32197;BME280;18697;42.770;23.400;2023-05-03T06:12:32;96061.69;;;11.55;69.12
32197;BME280;18697;42.770;23.400;2023-05-03T06:14:57;96049.78;;;11.55;65.18
32197;BME280;18697;42.770;23.400;2023-05-03T06:17:23;96056.06;;;11.37;63.57
32197;BME280;18697;42.770;23.400;2023-05-03T06:19:49;96067.75;;;11.23;62.77
32197;BME280;18697;42.770;23.400;2023-05-03T06:22:15;96078.69;;;11.08;63.03
32197;BME280;18697;42.770;23.400;2023-05-03T06:24:40;96068.81;;;11.07;64.53
32197;BME280;18697;42.770;23.400;2023-05-03T06:27:05;96064.09;;;10.95;64.40
32197;BME280;18697;42.770;23.400;2023-05-03T06:29:31;96073.84;;;10.99;65.19
32197;BME280;18697;42.770;23.400;2023-05-03T06:31:56;96066.75;;;10.98;65.25
32197;BME280;18697;42.770;23.400;2023-05-03T06:34:22;96063.19;;;10.98;65.04
32197;BME280;18697;42.770;23.400;2023-05-03T06:36:48;96060.16;;;11.05;65.00
32197;BME280;18697;42.770;23.400;2023-05-03T06:39:14;96064.47;;;11.06;64.28
32197;BME280;18697;42.770;23.400;2023-05-03T06:41:39;96067.56;;;11.08;64.69
32197;BME280;18697;42.770;23.400;2023-05-03T06:44:04;96055.69;;;11.16;64.03
32197;BME280;18697;42.770;23.400;2023-05-03T06:46:32;96065.56;;;11.17;64.56
32197;BME280;18697;42.770;23.400;2023-05-03T06:48:57;96062.97;;;11.14;63.30
32197;BME280;18697;42.770;23.400;2023-05-03T06:51:23;96052.75;;;11.20;63.69
32197;BME280;18697;42.770;23.400;2023-05-03T07:08:27;96023.38;;;11.68;63.75
32197;BME280;18697;42.770;23.400;2023-05-03T07:10:53;96027.09;;;11.65;64.22
32197;BME280;18697;42.770;23.400;2023-05-03T07:13:18;96012.56;;;11.61;65.40
32197;BME280;18697;42.770;23.400;2023-05-03T07:15:44;96017.81;;;11.59;65.33
32197;BME280;18697;42.770;23.400;2023-05-03T07:18:10;96017.19;;;11.64;65.62
32197;BME280;18697;42.770;23.400;2023-05-03T07:20:35;96017.34;;;11.61;65.51
32197;BME280;18697;42.770;23.400;2023-05-03T07:23:01;96017.63;;;11.44;64.37
32197;BME280;18697;42.770;23.400;2023-05-03T07:25:26;96037.41;;;11.46;64.91
32197;BME280;18697;42.770;23.400;2023-05-03T07:27:51;96037.69;;;11.39;64.77
32197;BME280;18697;42.770;23.400;2023-05-03T07:30:17;96041.56;;;11.42;64.90
32197;BME280;18697;42.770;23.400;2023-05-03T07:32:42;96076.47;;;11.43;65.54
32197;BME280;18697;42.770;23.400;2023-05-03T07:35:08;96041.91;;;11.53;64.94
32197;BME280;18697;42.770;23.400;2023-05-03T07:37:33;96035.44;;;11.65;64.50
32197;BME280;18697;42.770;23.400;2023-05-03T07:39:58;96044.63;;;11.84;64.61
32197;BME280;18697;42.770;23.400;2023-05-03T07:42:24;96040.91;;;11.87;64.41
32197;BME280;18697;42.770;23.400;2023-05-03T07:44:50;96045.38;;;11.94;64.65
32197;BME280;18697;42.770;23.400;2023-05-03T07:47:16;96042.44;;;11.97;65.00
32197;BME280;18697;42.770;23.400;2023-05-03T07:49:41;96043.06;;;11.83;64.05
32197;BME280;18697;42.770;23.400;2023-05-03T07:52:07;96041.53;;;11.82;64.07
32197;BME280;18697;42.770;23.400;2023-05-03T07:54:32;96036.88;;;11.88;63.61
32197;BME280;18697;42.770;23.400;2023-05-03T07:56:57;96024.81;;;11.82;64.13
32197;BME280;18697;42.770;23.400;2023-05-03T07:59:23;96023.88;;;11.94;63.98
32197;BME280;18697;42.770;23.400;2023-05-03T08:01:48;96020.47;;;11.99;63.94
32197;BME280;18697;42.770;23.400;2023-05-03T08:04:13;96026.66;;;11.94;63.67
32197;BME280;18697;42.770;23.400;2023-05-03T08:06:39;96023.09;;;12.03;63.56
32197;BME280;18697;42.770;23.400;2023-05-03T08:09:04;96035.63;;;12.16;63.56
32197;BME280;18697;42.770;23.400;2023-05-03T08:11:29;96025.13;;;12.11;63.04
32197;BME280;18697;42.770;23.400;2023-05-03T08:13:55;96048.31;;;12.27;63.30
32197;BME280;18697;42.770;23.400;2023-05-03T08:16:20;96023.25;;;12.36;63.07
32197;BME280;18697;42.770;23.400;2023-05-03T08:18:46;96026.63;;;12.49;64.75
32197;BME280;18697;42.770;23.400;2023-05-03T08:21:11;96037.00;;;12.48;63.97
32197;BME280;18697;42.770;23.400;2023-05-03T08:23:38;96030.03;;;12.53;64.49
32197;BME280;18697;42.770;23.400;2023-05-03T08:26:04;96029.75;;;12.42;63.17
32197;BME280;18697;42.770;23.400;2023-05-03T08:28:31;96038.22;;;12.57;64.91
32197;BME280;18697;42.770;23.400;2023-05-03T08:30:57;96043.66;;;12.60;65.21
32197;BME280;18697;42.770;23.400;2023-05-03T08:33:22;96041.88;;;12.81;63.36
32197;BME280;18697;42.770;23.400;2023-05-03T08:35:48;96046.19;;;12.91;63.56
32197;BME280;18697;42.770;23.400;2023-05-03T08:38:13;96034.28;;;13.33;63.33
32197;BME280;18697;42.770;23.400;2023-05-03T08:40:39;96022.56;;;13.43;61.80
32197;BME280;18697;42.770;23.400;2023-05-03T08:43:09;96020.75;;;13.64;61.41
32197;BME280;18697;42.770;23.400;2023-05-03T08:45:34;96018.47;;;13.54;61.34
32197;BME280;18697;42.770;23.400;2023-05-03T08:48:00;96028.34;;;13.64;61.34
32197;BME280;18697;42.770;23.400;2023-05-03T09:12:58;96013.06;;;16.00;55.30
32197;BME280;18697;42.770;23.400;2023-05-03T09:15:25;96034.03;;;15.70;55.89
32197;BME280;18697;42.770;23.400;2023-05-03T09:18:21;96015.09;;;15.44;56.61
32197;BME280;18697;42.770;23.400;2023-05-03T09:20:48;96016.09;;;15.62;56.22
32197;BME280;18697;42.770;23.400;2023-05-03T09:23:37;96005.28;;;15.90;56.70
32197;BME280;18697;42.770;23.400;2023-05-03T09:26:03;96007.16;;;15.78;55.22
32197;BME280;18697;42.770;23.400;2023-05-03T09:28:39;95987.63;;;15.84;55.62
32197;BME280;18697;42.770;23.400;2023-05-03T09:31:06;95980.13;;;15.75;55.79
32197;BME280;18697;42.770;23.400;2023-05-03T09:33:32;95977.75;;;16.08;55.28
32197;BME280;18697;42.770;23.400;2023-05-03T09:36:01;95983.84;;;16.07;55.44
32197;BME280;18697;42.770;23.400;2023-05-03T09:38:32;95976.63;;;16.00;55.19
32197;BME280;18697;42.770;23.400;2023-05-03T09:40:58;95980.63;;;15.94;54.55
32197;BME280;18697;42.770;23.400;2023-05-03T09:43:24;95979.00;;;16.07;53.84
32197;BME280;18697;42.770;23.400;2023-05-03T09:45:49;95977.59;;;16.43;53.45
32197;BME280;18697;42.770;23.400;2023-05-03T09:48:15;95963.75;;;16.34;53.52
32197;BME280;18697;42.770;23.400;2023-05-03T09:50:41;95961.84;;;16.20;54.03
32197;BME280;18697;42.770;23.400;2023-05-03T09:53:07;95952.59;;;16.40;54.17
32197;BME280;18697;42.770;23.400;2023-05-03T09:55:34;95955.38;;;16.40;55.46
32197;BME280;18697;42.770;23.400;2023-05-03T09:58:00;95944.94;;;16.40;55.22
32197;BME280;18697;42.770;23.400;2023-05-03T10:00:32;95943.72;;;16.47;54.35
32197;BME280;18697;42.770;23.400;2023-05-03T10:03:00;95955.81;;;16.59;55.38
32197;BME280;18697;42.770;23.400;2023-05-03T10:05:29;95945.59;;;16.82;54.27
32197;BME280;18697;42.770;23.400;2023-05-03T10:07:58;95944.00;;;17.12;54.90
32197;BME280;18697;42.770;23.400;2023-05-03T10:10:27;95947.97;;;17.31;52.96
32197;BME280;18697;42.770;23.400;2023-05-03T10:12:56;95936.94;;;17.22;51.39
32197;BME280;18697;42.770;23.400;2023-05-03T10:15:25;95936.72;;;17.26;52.82
32197;BME280;18697;42.770;23.400;2023-05-03T10:17:53;95944.72;;;17.44;51.90
32197;BME280;18697;42.770;23.400;2023-05-03T10:20:30;95925.53;;;17.85;52.67
32197;BME280;18697;42.770;23.400;2023-05-03T10:25:29;95933.53;;;18.15;51.07
32197;BME280;18697;42.770;23.400;2023-05-03T10:28:07;95915.69;;;18.29;50.67
32197;BME280;18697;42.770;23.400;2023-05-03T10:30:39;95920.75;;;18.14;50.04
32197;BME280;18697;42.770;23.400;2023-05-03T10:33:28;95916.50;;;18.46;49.55
32197;BME280;18697;42.770;23.400;2023-05-03T10:35:54;95903.44;;;18.49;49.45
32197;BME280;18697;42.770;23.400;2023-05-03T10:38:24;95901.69;;;18.79;50.19
32197;BME280;18697;42.770;23.400;2023-05-03T10:40:51;95897.84;;;18.88;49.71
32197;BME280;18697;42.770;23.400;2023-05-03T10:46:01;95889.59;;;18.23;49.66
32197;BME280;18697;42.770;23.400;2023-05-03T10:48:28;95885.78;;;18.37;49.19
32197;BME280;18697;42.770;23.400;2023-05-03T10:50:55;95891.69;;;18.39;50.77
32197;BME280;18697;42.770;23.400;2023-05-03T10:56:12;95906.38;;;17.89;51.90
32197;BME280;18697;42.770;23.400;2023-05-03T10:58:42;95907.03;;;17.62;52.42
32197;BME280;18697;42.770;23.400;2023-05-03T11:01:09;95906.31;;;17.67;52.92
32197;BME280;18697;42.770;23.400;2023-05-03T11:03:51;95912.16;;;17.63;53.03
32197;BME280;18697;42.770;23.400;2023-05-03T11:06:32;95899.81;;;17.44;52.20
32197;BME280;18697;42.770;23.400;2023-05-03T11:08:59;95893.19;;;17.47;54.10
32197;BME280;18697;42.770;23.400;2023-05-03T11:11:24;95893.22;;;17.53;55.00
32197;BME280;18697;42.770;23.400;2023-05-03T11:13:50;95883.34;;;17.68;53.23
32197;BME280;18697;42.770;23.400;2023-05-03T11:16:16;95887.75;;;17.81;54.09
32197;BME280;18697;42.770;23.400;2023-05-03T11:18:42;95892.09;;;17.93;53.82
32197;BME280;18697;42.770;23.400;2023-05-03T11:21:09;95898.69;;;17.84;54.09
32197;BME280;18697;42.770;23.400;2023-05-03T11:23:37;95869.59;;;17.87;53.86
32197;BME280;18697;42.770;23.400;2023-05-03T11:26:05;95877.75;;;17.74;54.02
32197;BME280;18697;42.770;23.400;2023-05-03T11:28:30;95884.34;;;17.65;54.06
32197;BME280;18697;42.770;23.400;2023-05-03T11:30:56;95889.19;;;17.65;54.44
32197;BME280;18697;42.770;23.400;2023-05-03T11:33:21;95888.19;;;17.68;53.99
32197;BME280;18697;42.770;23.400;2023-05-03T11:35:47;95889.97;;;17.65;53.25
32197;BME280;18697;42.770;23.400;2023-05-03T11:38:12;95884.38;;;17.71;54.38
32197;BME280;18697;42.770;23.400;2023-05-03T11:40:38;95880.03;;;17.70;54.93
32197;BME280;18697;42.770;23.400;2023-05-03T11:43:04;95875.94;;;17.65;54.76
32197;BME280;18697;42.770;23.400;2023-05-03T11:45:44;95881.22;;;17.52;54.38
32197;BME280;18697;42.770;23.400;2023-05-03T11:48:11;95871.66;;;17.27;55.42
32197;BME280;18697;42.770;23.400;2023-05-03T11:50:51;95879.31;;;17.27;54.77
32197;BME280;18697;42.770;23.400;2023-05-03T11:53:21;95874.28;;;17.42;55.47
32197;BME280;18697;42.770;23.400;2023-05-03T11:55:49;95875.47;;;17.24;55.62
32197;BME280;18697;42.770;23.400;2023-05-03T11:58:16;95884.63;;;17.19;54.83
32197;BME280;18697;42.770;23.400;2023-05-03T12:00:45;95853.97;;;17.16;55.25
32197;BME280;18697;42.770;23.400;2023-05-03T12:03:21;95851.47;;;17.23;54.64
32197;BME280;18697;42.770;23.400;2023-05-03T12:05:48;95861.66;;;17.21;55.58
32197;BME280;18697;42.770;23.400;2023-05-03T12:08:14;95863.22;;;17.27;55.54
32197;BME280;18697;42.770;23.400;2023-05-03T12:10:42;95869.00;;;17.13;55.90
32197;BME280;18697;42.770;23.400;2023-05-03T12:13:07;95861.16;;;17.22;55.62
32197;BME280;18697;42.770;23.400;2023-05-03T12:15:33;95852.44;;;17.15;56.12
32197;BME280;18697;42.770;23.400;2023-05-03T12:18:01;95849.94;;;17.22;55.89
32197;BME280;18697;42.770;23.400;2023-05-03T12:20:28;95831.69;;;17.49;55.03
32197;BME280;18697;42.770;23.400;2023-05-03T12:22:56;95846.31;;;17.70;55.01
32197;BME280;18697;42.770;23.400;2023-05-03T12:25:22;95850.88;;;17.62;54.29
32197;BME280;18697;42.770;23.400;2023-05-03T12:27:48;95857.75;;;17.61;54.26
32197;BME280;18697;42.770;23.400;2023-05-03T12:30:13;95836.03;;;17.56;54.75
32197;BME280;18697;42.770;23.400;2023-05-03T12:32:39;95833.72;;;17.49;53.86
32197;BME280;18697;42.770;23.400;2023-05-03T12:35:05;95838.03;;;17.44;54.76
32197;BME280;18697;42.770;23.400;2023-05-03T12:37:31;95834.16;;;17.30;54.54
32197;BME280;18697;42.770;23.400;2023-05-03T12:39:56;95833.94;;;17.39;55.81
32197;BME280;18697;42.770;23.400;2023-05-03T12:42:21;95837.63;;;17.14;55.18
32197;BME280;18697;42.770;23.400;2023-05-03T12:44:47;95844.16;;;16.89;54.66
32197;BME280;18697;42.770;23.400;2023-05-03T12:47:12;95845.31;;;16.71;56.25
32197;BME280;18697;42.770;23.400;2023-05-03T12:49:38;95835.91;;;16.74;56.55
32197;BME280;18697;42.770;23.400;2023-05-03T12:52:03;95829.97;;;16.66;56.79
32197;BME280;18697;42.770;23.400;2023-05-03T12:54:29;95827.53;;;16.48;57.94
32197;BME280;18697;42.770;23.400;2023-05-03T12:56:54;95810.56;;;16.26;58.69
32197;BME280;18697;42.770;23.400;2023-05-03T12:59:20;95842.78;;;16.10;58.75
32197;BME280;18697;42.770;23.400;2023-05-03T13:01:45;95830.25;;;16.05;59.10
32197;BME280;18697;42.770;23.400;2023-05-03T13:04:11;95829.03;;;16.12;59.60
32197;BME280;18697;42.770;23.400;2023-05-03T13:06:36;95828.00;;;16.09;59.57
32197;BME280;18697;42.770;23.400;2023-05-03T13:09:03;95824.19;;;16.13;60.09
32197;BME280;18697;42.770;23.400;2023-05-03T13:11:30;95839.91;;;16.04;60.93
32197;BME280;18697;42.770;23.400;2023-05-03T13:13:56;95837.22;;;15.90;61.78
32197;BME280;18697;42.770;23.400;2023-05-03T13:16:21;95847.47;;;15.72;62.61
32197;BME280;18697;42.770;23.400;2023-05-03T13:18:48;95846.06;;;15.57;62.40
32197;BME280;18697;42.770;23.400;2023-05-03T13:21:19;95828.63;;;15.27;62.88
32197;BME280;18697;42.770;23.400;2023-05-03T13:23:45;95844.00;;;15.37;64.11
32197;BME280;18697;42.770;23.400;2023-05-03T13:26:10;95852.69;;;15.39;64.73
32197;BME280;18697;42.770;23.400;2023-05-03T13:28:35;95842.47;;;15.16;65.82
32197;BME280;18697;42.770;23.400;2023-05-03T13:31:01;95847.28;;;14.95;67.71
32197;BME280;18697;42.770;23.400;2023-05-03T13:33:26;95848.72;;;14.70;67.66
32197;BME280;18697;42.770;23.400;2023-05-03T13:35:53;95863.03;;;14.57;68.90
32197;BME280;18697;42.770;23.400;2023-05-03T13:38:19;95870.94;;;14.44;71.47
32197;BME280;18697;42.770;23.400;2023-05-03T13:40:44;95867.84;;;14.27;73.40